createdAt,value
2023-05-18T00:00:39.783Z,7.61
2023-05-18T00:05:47.785Z,7.51
2023-05-18T00:10:55.761Z,7.43
2023-05-18T00:16:03.404Z,7.33
2023-05-18T00:21:11.255Z,7.22
2023-05-18T00:26:18.717Z,7.08
2023-05-18T00:31:27.729Z,7.03
2023-05-18T00:36:35.939Z,6.95
2023-05-18T00:41:44.144Z,6.86
2023-05-18T00:46:51.856Z,6.77
2023-05-18T00:52:00.260Z,6.68
2023-05-18T00:57:09.427Z,6.58
2023-05-18T01:02:18.009Z,6.52
2023-05-18T01:07:27.053Z,6.45
2023-05-18T01:12:39.401Z,6.36
2023-05-18T01:18:05.592Z,6.28
2023-05-18T01:23:45.741Z,6.20
2023-05-18T01:28:56.331Z,6.11
2023-05-18T01:34:04.017Z,6.03
2023-05-18T01:39:13.402Z,5.96
2023-05-18T01:44:26.772Z,5.89
2023-05-18T01:49:37.639Z,5.81
2023-05-18T01:54:47.858Z,5.74
2023-05-18T01:59:56.506Z,5.67
2023-05-18T02:05:06.067Z,5.61
2023-05-18T02:10:16.153Z,5.58
2023-05-18T02:15:24.774Z,5.57
2023-05-18T02:20:35.785Z,5.57
2023-05-18T02:25:45.019Z,5.57
2023-05-18T02:30:53.709Z,5.58
2023-05-18T02:36:01.484Z,5.59
2023-05-18T02:41:09.056Z,5.61
2023-05-18T02:46:16.550Z,5.63
2023-05-18T02:51:24.715Z,5.65
2023-05-18T02:56:33.226Z,5.68
2023-05-18T03:01:55.579Z,5.72
2023-05-18T03:07:03.636Z,5.77
2023-05-18T03:12:12.421Z,5.81
2023-05-18T03:17:20.702Z,5.86
2023-05-18T03:22:28.746Z,5.92
2023-05-18T03:27:38.530Z,5.98
2023-05-18T03:32:46.632Z,6.05
2023-05-18T03:37:54.957Z,6.13
2023-05-18T03:43:02.628Z,6.21
2023-05-18T03:48:10.853Z,6.30
2023-05-18T03:53:19.700Z,6.41
2023-05-18T03:58:27.962Z,6.52
2023-05-18T04:03:36.235Z,6.62
2023-05-18T04:08:43.818Z,6.72
2023-05-18T04:13:51.506Z,6.83
2023-05-18T04:18:59.077Z,6.92
2023-05-18T04:24:07.664Z,7.01
2023-05-18T04:29:15.098Z,7.10
2023-05-18T04:34:25.059Z,7.19
2023-05-18T04:39:33.487Z,7.29
2023-05-18T04:44:42.020Z,7.39
2023-05-18T04:49:53.017Z,7.48
2023-05-18T04:55:00.589Z,7.58
2023-05-18T05:00:13.473Z,7.68
2023-05-18T05:05:21.045Z,7.79
2023-05-18T05:10:29.010Z,7.90
2023-05-18T05:15:37.366Z,8.03
2023-05-18T05:20:45.101Z,8.14
2023-05-18T05:25:52.702Z,8.34
2023-05-18T05:31:01.546Z,8.53
2023-05-18T05:36:11.183Z,8.74
2023-05-18T05:41:19.240Z,8.95
2023-05-18T05:46:26.867Z,9.15
2023-05-18T05:51:36.549Z,9.32
2023-05-18T05:56:44.851Z,9.49
2023-05-18T06:01:53.849Z,9.62
2023-05-18T06:07:01.540Z,9.73
2023-05-18T06:12:11.251Z,9.78
2023-05-18T06:17:19.941Z,9.90
2023-05-18T06:22:28.131Z,10.06
2023-05-18T06:27:56.127Z,10.14
2023-05-18T06:33:24.301Z,10.22
2023-05-18T06:38:32.558Z,10.30
2023-05-18T06:43:40.840Z,10.39
2023-05-18T06:48:59.688Z,10.51
2023-05-18T06:54:08.086Z,10.65
2023-05-18T06:59:15.682Z,10.80
2023-05-18T07:04:24.468Z,10.94
2023-05-18T07:09:32.010Z,11.07
2023-05-18T07:14:39.491Z,11.16
2023-05-18T07:19:47.034Z,11.26
2023-05-18T07:24:54.453Z,11.34
2023-05-18T07:30:01.985Z,11.44
2023-05-18T07:35:10.573Z,11.53
2023-05-18T07:40:18.766Z,11.67
2023-05-18T07:45:27.329Z,11.83
2023-05-18T07:50:35.209Z,12.02
2023-05-18T07:55:43.020Z,12.22
2023-05-18T08:00:50.893Z,12.41
2023-05-18T08:05:58.319Z,12.56
2023-05-18T08:11:05.856Z,12.69
2023-05-18T08:16:13.565Z,12.78
2023-05-18T08:21:21.478Z,12.88
2023-05-18T08:26:29.131Z,12.97
2023-05-18T08:31:36.886Z,13.02
2023-05-18T08:36:46.324Z,13.09
2023-05-18T08:42:03.352Z,13.13
2023-05-18T08:47:13.392Z,13.16
2023-05-18T08:52:24.909Z,13.20
2023-05-18T08:57:34.378Z,13.26
2023-05-18T09:02:43.287Z,13.33
2023-05-18T09:07:51.869Z,13.40
2023-05-18T09:13:02.205Z,13.48
2023-05-18T09:18:10.184Z,13.54
2023-05-18T09:23:18.614Z,13.60
2023-05-18T09:28:38.010Z,13.66
2023-05-18T09:33:48.143Z,13.72
2023-05-18T09:38:56.187Z,13.80
2023-05-18T09:44:09.623Z,13.87
2023-05-18T09:49:25.359Z,13.95
2023-05-18T09:54:33.095Z,14.04
2023-05-18T09:59:41.977Z,14.12
2023-05-18T10:04:49.505Z,14.18
2023-05-18T10:10:07.741Z,14.25
2023-05-18T10:15:20.112Z,14.32
2023-05-18T10:20:28.664Z,14.38
2023-05-18T10:25:37.893Z,14.46
2023-05-18T10:30:46.485Z,14.52
2023-05-18T10:35:54.572Z,14.59
2023-05-18T10:41:03.074Z,14.65
2023-05-18T10:46:11.199Z,14.74
2023-05-18T10:51:21.050Z,14.81
2023-05-18T10:56:30.404Z,14.90
2023-05-18T11:01:38.631Z,14.99
2023-05-18T11:06:55.972Z,15.07
2023-05-18T11:12:04.375Z,15.16
2023-05-18T11:17:22.901Z,15.26
2023-05-18T11:22:44.600Z,15.32
2023-05-18T11:27:52.186Z,15.40
2023-05-18T11:33:12.850Z,15.44
2023-05-18T11:38:20.605Z,15.50
2023-05-18T11:43:28.563Z,15.56
2023-05-18T11:48:36.341Z,15.60
2023-05-18T11:53:44.394Z,15.61
2023-05-18T11:59:15.590Z,15.65
2023-05-18T12:04:23.611Z,15.68
2023-05-18T12:09:34.757Z,15.73
2023-05-18T12:14:43.401Z,15.79
2023-05-18T12:19:51.754Z,15.84
2023-05-18T12:24:59.351Z,15.90
2023-05-18T12:30:07.736Z,15.98
2023-05-18T12:35:15.502Z,16.04
2023-05-18T12:40:23.769Z,16.08
2023-05-18T12:45:33.693Z,16.10
2023-05-18T12:50:51.071Z,16.13
2023-05-18T12:56:06.121Z,16.14
2023-05-18T13:01:14.141Z,16.18
2023-05-18T13:06:22.483Z,16.21
2023-05-18T13:11:30.379Z,16.26
2023-05-18T13:16:43.480Z,16.30
2023-05-18T13:21:57.725Z,16.35
2023-05-18T13:27:05.283Z,16.39
2023-05-18T13:32:13.665Z,16.45
2023-05-18T13:37:21.304Z,16.51
2023-05-18T13:42:28.929Z,16.57
2023-05-18T13:47:36.530Z,16.61
2023-05-18T13:52:44.640Z,16.64
2023-05-18T13:57:52.431Z,16.66
2023-05-18T14:03:00.007Z,16.70
2023-05-18T14:08:09.138Z,16.71
2023-05-18T14:13:17.075Z,16.72
2023-05-18T14:18:28.976Z,16.72
2023-05-18T14:23:36.827Z,16.74
2023-05-18T14:28:44.396Z,16.75
2023-05-18T14:33:51.933Z,16.75
2023-05-18T14:38:59.489Z,16.75
2023-05-18T14:44:09.093Z,16.78
2023-05-18T14:49:16.639Z,16.79
2023-05-18T14:54:24.053Z,16.79
2023-05-18T14:59:31.749Z,16.79
2023-05-18T15:04:39.493Z,16.78
2023-05-18T15:09:46.916Z,16.81
2023-05-18T15:14:54.527Z,16.80
2023-05-18T15:20:02.111Z,16.77
2023-05-18T15:25:11.416Z,16.76
2023-05-18T15:30:19.069Z,16.73
2023-05-18T15:35:26.895Z,16.73
2023-05-18T15:40:34.516Z,16.74
2023-05-18T15:45:42.024Z,16.75
2023-05-18T15:50:49.525Z,16.74
2023-05-18T15:55:59.020Z,16.70
2023-05-18T16:01:07.914Z,16.67
2023-05-18T16:06:15.794Z,16.64
2023-05-18T16:11:23.449Z,16.63
2023-05-18T16:16:31.207Z,16.62
2023-05-18T16:21:38.526Z,16.58
2023-05-18T16:26:46.048Z,16.55
2023-05-18T16:31:53.667Z,16.54
2023-05-18T16:37:01.179Z,16.52
2023-05-18T16:42:09.924Z,16.50
2023-05-18T16:47:17.441Z,16.47
2023-05-18T16:52:24.989Z,16.44
2023-05-18T16:57:34.229Z,16.41
2023-05-18T17:02:42.210Z,16.34
2023-05-18T17:07:50.435Z,16.31
2023-05-18T17:12:58.815Z,16.27
2023-05-18T17:18:06.933Z,16.22
2023-05-18T17:23:18.120Z,16.17
2023-05-18T17:28:28.627Z,16.11
2023-05-18T17:33:39.903Z,16.04
2023-05-18T17:38:47.943Z,15.99
2023-05-18T17:43:55.769Z,15.91
2023-05-18T17:49:04.424Z,15.85
2023-05-18T17:54:12.458Z,15.77
2023-05-18T17:59:20.363Z,15.67
2023-05-18T18:04:28.101Z,15.55
2023-05-18T18:09:35.667Z,15.43
2023-05-18T18:14:43.583Z,15.29
2023-05-18T18:19:51.118Z,15.15
2023-05-18T18:24:58.665Z,15.05
2023-05-18T18:30:06.991Z,14.93
2023-05-18T18:35:15.897Z,14.82
2023-05-18T18:40:23.661Z,14.71
2023-05-18T18:45:32.527Z,14.60
2023-05-18T18:50:39.887Z,14.48
2023-05-18T18:55:48.099Z,14.38
2023-05-18T19:00:56.155Z,14.27
2023-05-18T19:06:04.273Z,14.16
2023-05-18T19:11:12.098Z,14.06
2023-05-18T19:16:19.915Z,13.97
2023-05-18T19:21:27.482Z,13.89
2023-05-18T19:26:36.515Z,13.79
2023-05-18T19:31:44.371Z,13.69
2023-05-18T19:36:52.598Z,13.62
2023-05-18T19:42:00.842Z,13.52
2023-05-18T19:47:09.632Z,13.43
2023-05-18T19:52:18.773Z,13.35
2023-05-18T19:57:26.996Z,13.26
2023-05-18T20:02:34.525Z,13.18
2023-05-18T20:07:42.332Z,13.10
2023-05-18T20:12:50.044Z,13.02
2023-05-18T20:17:58.152Z,12.96
2023-05-18T20:23:07.368Z,12.90
2023-05-18T20:28:16.696Z,12.83
2023-05-18T20:33:24.645Z,12.76
2023-05-18T20:38:32.332Z,12.67
2023-05-18T20:43:40.699Z,12.61
2023-05-18T20:48:48.715Z,12.54
2023-05-18T20:53:56.282Z,12.47
2023-05-18T20:59:06.162Z,12.39
2023-05-18T21:04:15.416Z,12.33
2023-05-18T21:09:25.397Z,12.25
2023-05-18T21:14:33.195Z,12.19
2023-05-18T21:19:41.102Z,12.11
2023-05-18T21:24:48.600Z,12.04
2023-05-18T21:29:56.283Z,11.98
2023-05-18T21:35:03.948Z,11.89
2023-05-18T21:40:13.785Z,11.83
2023-05-18T21:45:22.940Z,11.78
2023-05-18T21:50:35.448Z,11.72
2023-05-18T21:55:43.566Z,11.66
2023-05-18T22:00:51.500Z,11.60
2023-05-18T22:06:00.557Z,11.55
2023-05-18T22:11:08.904Z,11.48
2023-05-18T22:16:16.391Z,11.43
2023-05-18T22:21:24.233Z,11.37
2023-05-18T22:26:32.396Z,11.31
2023-05-18T22:31:39.889Z,11.26
2023-05-18T22:36:47.972Z,11.20
2023-05-18T22:41:55.414Z,11.16
2023-05-18T22:47:03.735Z,11.12
2023-05-18T22:52:12.410Z,11.06
2023-05-18T22:57:22.752Z,11.03
2023-05-18T23:02:30.623Z,10.98
2023-05-18T23:07:38.943Z,10.93
2023-05-18T23:12:48.812Z,10.89
2023-05-18T23:17:56.410Z,10.85
2023-05-18T23:23:04.181Z,10.80
2023-05-18T23:28:11.784Z,10.76
2023-05-18T23:33:20.907Z,10.72
2023-05-18T23:38:35.124Z,10.68
2023-05-18T23:43:44.372Z,10.64
2023-05-18T23:48:53.631Z,10.59
2023-05-18T23:54:02.346Z,10.56
2023-05-18T23:59:11.708Z,10.52
